createdAt,value
2017-08-09T00:01:29.029Z,99.90
2017-08-09T00:03:57.319Z,99.90
2017-08-09T00:06:24.863Z,99.90
2017-08-09T00:08:53.156Z,99.90
2017-08-09T00:11:20.682Z,99.90
2017-08-09T00:13:48.319Z,99.90
2017-08-09T00:18:47.600Z,99.90
2017-08-09T00:21:15.212Z,99.90
2017-08-09T00:23:43.662Z,99.90
2017-08-09T00:26:11.190Z,99.90
2017-08-09T00:31:12.030Z,99.90
2017-08-09T00:33:40.349Z,99.90
2017-08-09T00:36:07.865Z,99.90
2017-08-09T00:38:36.493Z,99.90
2017-08-09T00:41:04.053Z,99.90
2017-08-09T00:43:31.577Z,99.90
2017-08-09T00:46:00.137Z,99.90
2017-08-09T00:48:29.497Z,99.90
2017-08-09T00:50:57.018Z,99.90
2017-08-09T00:53:24.630Z,99.90
2017-08-09T00:55:52.584Z,99.90
2017-08-09T00:58:20.103Z,99.90
2017-08-09T01:00:48.414Z,99.90
2017-08-09T01:03:17.618Z,99.90
2017-08-09T01:05:45.148Z,99.90
2017-08-09T01:08:13.434Z,99.90
2017-08-09T01:10:44.497Z,99.90
2017-08-09T01:13:12.363Z,99.90
2017-08-09T01:15:39.894Z,99.90
2017-08-09T01:18:07.440Z,99.90
2017-08-09T01:20:35.762Z,99.90
2017-08-09T01:23:03.316Z,99.90
2017-08-09T01:25:30.850Z,99.90
2017-08-09T01:27:58.441Z,99.90
2017-08-09T01:30:25.958Z,99.90
2017-08-09T01:32:54.271Z,99.90
2017-08-09T01:35:21.834Z,99.90
2017-08-09T01:37:49.530Z,99.90
2017-08-09T01:40:17.073Z,99.90
2017-08-09T01:42:44.585Z,99.90
2017-08-09T01:45:12.867Z,99.90
2017-08-09T01:47:40.405Z,99.90
2017-08-09T01:50:08.705Z,99.90
2017-08-09T01:52:36.300Z,99.90
2017-08-09T01:55:03.833Z,99.90
2017-08-09T01:57:31.413Z,99.90
2017-08-09T01:59:58.968Z,99.90
2017-08-09T02:02:26.525Z,99.90
2017-08-09T02:04:54.052Z,99.90
2017-08-09T02:07:22.349Z,99.90
2017-08-09T02:09:49.885Z,99.90
2017-08-09T02:12:18.298Z,99.90
2017-08-09T02:14:45.825Z,99.90
2017-08-09T02:17:14.142Z,99.90
2017-08-09T02:19:41.672Z,99.90
2017-08-09T02:22:09.199Z,99.90
2017-08-09T02:24:36.738Z,99.90
2017-08-09T02:27:04.266Z,99.90
2017-08-09T02:29:31.794Z,99.90
2017-08-09T02:32:00.121Z,99.90
2017-08-09T02:34:27.652Z,99.90
2017-08-09T02:36:55.242Z,99.90
2017-08-09T02:39:22.806Z,99.90
2017-08-09T02:41:50.357Z,99.90
2017-08-09T02:44:17.889Z,99.90
2017-08-09T02:46:45.479Z,99.90
2017-08-09T02:49:13.010Z,99.90
2017-08-09T02:51:40.553Z,99.90
2017-08-09T02:54:08.865Z,99.90
2017-08-09T02:56:36.393Z,99.90
2017-08-09T02:59:03.981Z,99.90
2017-08-09T03:01:31.537Z,99.90
2017-08-09T03:03:59.065Z,99.90
2017-08-09T03:06:27.377Z,99.90
2017-08-09T03:08:54.917Z,99.90
2017-08-09T03:11:22.496Z,99.90
2017-08-09T03:13:50.023Z,99.90
2017-08-09T03:16:18.334Z,99.90
2017-08-09T03:18:45.888Z,99.90
2017-08-09T03:21:13.455Z,99.90
2017-08-09T03:23:41.007Z,99.90
2017-08-09T03:26:08.532Z,99.90
2017-08-09T03:28:36.822Z,99.90
2017-08-09T03:31:04.369Z,99.90
2017-08-09T03:33:32.666Z,99.90
2017-08-09T03:36:00.256Z,99.90
2017-08-09T03:38:27.803Z,99.90
2017-08-09T03:40:55.329Z,99.90
2017-08-09T03:43:22.930Z,99.90
2017-08-09T03:45:50.488Z,99.90
2017-08-09T03:48:18.017Z,99.90
2017-08-09T03:50:45.903Z,99.90
2017-08-09T03:53:13.453Z,99.90
2017-08-09T03:55:40.979Z,99.90
2017-08-09T03:58:09.273Z,99.90
2017-08-09T04:00:36.815Z,99.90
2017-08-09T04:03:05.097Z,99.90
2017-08-09T04:05:33.385Z,99.90
2017-08-09T04:08:00.921Z,99.90
2017-08-09T04:10:28.441Z,99.90
2017-08-09T04:12:55.995Z,99.90
2017-08-09T04:15:23.549Z,99.90
2017-08-09T04:17:51.074Z,99.90
2017-08-09T04:20:19.494Z,99.90
2017-08-09T04:22:47.035Z,99.90
2017-08-09T04:25:14.557Z,99.90
2017-08-09T04:27:43.107Z,99.90
2017-08-09T04:30:10.648Z,99.90
2017-08-09T04:32:38.312Z,99.90
2017-08-09T04:35:05.971Z,99.90
2017-08-09T04:37:33.530Z,99.90
2017-08-09T04:40:01.090Z,99.90
2017-08-09T04:42:28.624Z,99.90
2017-08-09T04:44:56.312Z,99.90
2017-08-09T04:47:24.689Z,99.90
2017-08-09T04:49:52.252Z,99.90
2017-08-09T04:52:19.799Z,99.90
2017-08-09T04:54:47.381Z,99.90
2017-08-09T04:57:14.942Z,99.90
2017-08-09T04:59:42.493Z,99.90
2017-08-09T05:02:10.050Z,99.90
2017-08-09T05:04:37.596Z,99.90
2017-08-09T05:07:05.145Z,99.90
2017-08-09T05:09:32.729Z,99.90
2017-08-09T05:12:00.305Z,99.90
2017-08-09T05:14:27.845Z,99.90
2017-08-09T05:16:55.507Z,99.90
2017-08-09T05:19:23.038Z,99.90
2017-08-09T05:21:50.632Z,99.90
2017-08-09T05:24:18.153Z,99.90
2017-08-09T05:26:46.448Z,99.90
2017-08-09T05:29:14.123Z,99.90
2017-08-09T05:31:41.687Z,99.90
2017-08-09T05:34:09.241Z,99.90
2017-08-09T05:36:36.786Z,99.90
2017-08-09T05:39:04.310Z,99.90
2017-08-09T05:41:32.607Z,99.90
2017-08-09T05:44:00.910Z,99.90
2017-08-09T05:46:28.443Z,99.90
2017-08-09T05:48:56.750Z,99.90
2017-08-09T05:51:24.294Z,99.90
2017-08-09T05:53:51.866Z,99.90
2017-08-09T05:56:19.385Z,99.90
2017-08-09T05:58:47.705Z,99.90
2017-08-09T06:01:15.223Z,99.90
2017-08-09T06:03:43.549Z,99.90
2017-08-09T06:06:11.100Z,99.90
2017-08-09T06:08:38.621Z,99.90
2017-08-09T06:11:06.902Z,99.90
2017-08-09T06:13:35.201Z,99.90
2017-08-09T06:16:02.777Z,99.90
2017-08-09T06:18:30.299Z,99.90
2017-08-09T06:20:58.609Z,99.90
2017-08-09T06:23:26.167Z,99.90
2017-08-09T06:25:53.685Z,99.90
2017-08-09T06:28:22.015Z,99.90
2017-08-09T06:30:49.533Z,99.90
2017-08-09T06:33:17.812Z,99.90
2017-08-09T06:35:45.503Z,99.90
2017-08-09T06:38:13.066Z,99.90
2017-08-09T06:40:40.624Z,99.90
2017-08-09T06:43:08.158Z,99.90
2017-08-09T06:45:35.713Z,99.90
2017-08-09T06:48:03.306Z,99.90
2017-08-09T06:50:31.063Z,99.90
2017-08-09T06:52:59.458Z,99.90
2017-08-09T06:55:26.986Z,99.90
2017-08-09T06:57:54.544Z,99.90
2017-08-09T07:00:22.070Z,99.90
2017-08-09T07:02:49.585Z,99.90
2017-08-09T07:05:17.137Z,99.90
2017-08-09T07:07:44.665Z,99.90
2017-08-09T07:10:12.959Z,99.90
2017-08-09T07:12:40.497Z,99.90
2017-08-09T07:15:08.813Z,99.90
2017-08-09T07:17:36.382Z,99.90
2017-08-09T07:20:03.927Z,99.90
2017-08-09T07:22:31.445Z,99.90
2017-08-09T07:24:59.736Z,99.90
2017-08-09T07:27:28.052Z,99.90
2017-08-09T07:29:55.583Z,99.90
2017-08-09T07:32:23.108Z,99.90
2017-08-09T07:34:50.644Z,99.90
2017-08-09T07:37:18.196Z,99.90
2017-08-09T07:39:45.713Z,99.90
2017-08-09T07:42:13.248Z,99.90
2017-08-09T07:44:40.770Z,99.90
2017-08-09T07:47:08.314Z,99.90
2017-08-09T07:49:35.852Z,99.90
2017-08-09T07:52:03.406Z,99.90
2017-08-09T07:54:31.096Z,99.90
2017-08-09T07:56:58.650Z,99.90
2017-08-09T07:59:26.214Z,99.90
2017-08-09T08:01:53.734Z,99.90
2017-08-09T08:04:22.050Z,99.90
2017-08-09T08:06:49.614Z,99.90
2017-08-09T08:09:17.169Z,99.90
2017-08-09T08:11:44.733Z,99.90
2017-08-09T08:14:12.245Z,99.90
2017-08-09T08:16:40.581Z,99.90
2017-08-09T08:19:08.229Z,99.90
2017-08-09T08:21:35.745Z,99.90
2017-08-09T08:24:04.169Z,99.90
2017-08-09T08:26:31.725Z,99.90
2017-08-09T08:28:59.285Z,99.90
2017-08-09T08:31:26.801Z,99.90
2017-08-09T08:33:55.120Z,99.90
2017-08-09T08:36:22.695Z,99.90
2017-08-09T08:38:50.210Z,99.90
2017-08-09T08:41:17.752Z,99.90
2017-08-09T08:43:46.044Z,99.90
2017-08-09T08:46:13.572Z,99.90
2017-08-09T08:48:41.114Z,99.90
2017-08-09T08:51:08.770Z,99.90
2017-08-09T08:53:36.323Z,99.90
2017-08-09T08:56:03.870Z,99.90
2017-08-09T08:58:31.396Z,99.90
2017-08-09T09:00:58.925Z,99.90
2017-08-09T09:03:26.561Z,99.90
2017-08-09T09:05:54.325Z,99.90
2017-08-09T09:08:21.850Z,99.90
2017-08-09T09:10:49.385Z,99.90
2017-08-09T09:13:17.099Z,99.90
2017-08-09T09:15:44.669Z,99.90
2017-08-09T09:18:12.208Z,99.90
2017-08-09T09:20:39.726Z,99.90
2017-08-09T09:23:07.241Z,99.90
2017-08-09T09:25:34.807Z,98.40
2017-08-09T09:28:02.353Z,97.00
2017-08-09T09:30:29.888Z,98.40
2017-08-09T09:32:57.433Z,98.40
2017-08-09T09:35:25.768Z,89.00
2017-08-09T09:37:53.312Z,89.00
2017-08-09T09:40:20.875Z,90.10
2017-08-09T09:42:48.430Z,91.10
2017-08-09T09:45:15.959Z,88.60
2017-08-09T09:47:43.516Z,90.80
2017-08-09T09:50:11.834Z,91.60
2017-08-09T09:52:39.354Z,91.60
2017-08-09T09:55:06.902Z,88.50
2017-08-09T09:57:34.502Z,89.00
2017-08-09T10:00:02.697Z,83.20
2017-08-09T10:02:30.338Z,82.70
2017-08-09T10:04:57.864Z,81.90
2017-08-09T10:07:26.146Z,77.90
2017-08-09T10:09:53.690Z,77.90
2017-08-09T10:12:21.302Z,80.40
2017-08-09T10:14:48.829Z,80.70
2017-08-09T10:17:16.370Z,79.80
2017-08-09T10:19:44.683Z,85.10
2017-08-09T10:22:12.203Z,85.10
2017-08-09T10:24:39.819Z,87.50
2017-08-09T10:27:07.374Z,86.80
2017-08-09T10:29:34.893Z,86.60
2017-08-09T10:32:02.449Z,85.30
2017-08-09T10:34:30.737Z,82.50
2017-08-09T10:36:58.327Z,82.40
2017-08-09T10:39:25.874Z,83.50
2017-08-09T10:41:53.443Z,80.40
2017-08-09T10:44:20.968Z,78.70
2017-08-09T10:46:49.380Z,76.10
2017-08-09T10:49:16.946Z,76.00
2017-08-09T10:51:44.506Z,73.40
2017-08-09T10:54:12.058Z,73.80
2017-08-09T10:56:39.621Z,71.00
2017-08-09T10:59:07.194Z,70.80
2017-08-09T11:01:34.758Z,68.90
2017-08-09T11:04:02.400Z,67.30
2017-08-09T11:06:29.930Z,65.30
2017-08-09T11:08:58.439Z,58.90
2017-08-09T11:11:25.971Z,58.80
2017-08-09T11:13:54.379Z,57.80
2017-08-09T11:16:21.945Z,57.80
2017-08-09T11:18:49.497Z,54.60
2017-08-09T11:21:17.023Z,53.40
2017-08-09T11:23:45.339Z,54.20
2017-08-09T11:26:12.867Z,54.10
2017-08-09T11:28:40.458Z,53.50
2017-08-09T11:31:08.329Z,49.80
2017-08-09T11:33:35.849Z,50.20
2017-08-09T11:36:03.378Z,50.70
2017-08-09T11:38:30.926Z,53.00
2017-08-09T11:40:58.481Z,54.50
2017-08-09T11:43:26.938Z,53.10
2017-08-09T11:45:54.480Z,48.60
2017-08-09T11:48:22.024Z,44.80
2017-08-09T11:50:50.332Z,41.10
2017-08-09T11:53:17.893Z,41.00
2017-08-09T11:55:45.458Z,39.20
2017-08-09T11:58:12.988Z,37.80
2017-08-09T12:00:40.576Z,36.50
2017-08-09T12:03:08.110Z,36.80
2017-08-09T12:05:35.694Z,36.20
2017-08-09T12:08:03.254Z,35.20
2017-08-09T12:10:30.794Z,35.90
2017-08-09T12:12:58.327Z,33.80
2017-08-09T12:15:26.643Z,35.40
2017-08-09T12:17:54.237Z,35.30
2017-08-09T12:20:21.761Z,35.30
2017-08-09T12:22:49.325Z,34.60
2017-08-09T12:25:16.845Z,34.30
2017-08-09T12:27:45.141Z,36.60
2017-08-09T12:30:12.725Z,36.60
2017-08-09T12:32:40.383Z,36.20
2017-08-09T12:35:08.047Z,38.10
2017-08-09T12:37:35.581Z,39.50
2017-08-09T12:40:03.121Z,38.20
2017-08-09T12:42:30.660Z,36.00
2017-08-09T12:44:58.293Z,35.40
2017-08-09T12:47:25.842Z,33.60
2017-08-09T12:49:53.504Z,33.20
2017-08-09T12:52:21.066Z,34.10
2017-08-09T12:54:48.588Z,36.40
2017-08-09T12:57:16.878Z,36.80
2017-08-09T12:59:44.414Z,36.70
2017-08-09T13:02:12.708Z,34.60
2017-08-09T13:04:40.294Z,34.60
2017-08-09T13:07:07.856Z,33.50
2017-08-09T13:09:35.377Z,32.10
2017-08-09T13:12:03.670Z,33.70
2017-08-09T13:14:31.210Z,33.60
2017-08-09T13:16:59.498Z,36.70
2017-08-09T13:19:27.022Z,36.70
2017-08-09T13:21:54.561Z,35.70
2017-08-09T13:24:22.117Z,36.10
2017-08-09T13:26:49.768Z,35.90
2017-08-09T13:29:17.331Z,34.10
2017-08-09T13:31:44.860Z,32.80
2017-08-09T13:34:12.421Z,32.50
2017-08-09T13:36:40.045Z,32.10
2017-08-09T13:39:07.669Z,31.60
2017-08-09T13:41:35.189Z,31.70
2017-08-09T13:44:03.602Z,30.50
2017-08-09T13:46:31.163Z,30.40
2017-08-09T13:48:58.720Z,31.40
2017-08-09T13:51:26.253Z,32.30
2017-08-09T13:53:53.774Z,33.20
2017-08-09T13:56:21.300Z,33.10
2017-08-09T13:58:48.858Z,31.90
2017-08-09T14:01:16.383Z,32.40
2017-08-09T14:03:44.697Z,32.00
2017-08-09T14:06:12.246Z,31.90
2017-08-09T14:08:40.530Z,32.20
2017-08-09T14:11:08.192Z,31.70
2017-08-09T14:13:35.758Z,32.10
2017-08-09T14:16:03.556Z,33.10
2017-08-09T14:18:31.114Z,32.40
2017-08-09T14:20:58.742Z,32.80
2017-08-09T14:23:26.262Z,32.80
2017-08-09T14:25:53.790Z,32.70
2017-08-09T14:28:21.333Z,33.30
2017-08-09T14:30:48.898Z,32.80
2017-08-09T14:33:16.446Z,32.50
2017-08-09T14:35:43.999Z,32.70
2017-08-09T14:38:11.656Z,33.10
2017-08-09T14:40:39.181Z,32.60
2017-08-09T14:43:06.723Z,33.30
2017-08-09T14:45:35.045Z,33.00
2017-08-09T14:48:02.713Z,32.30
2017-08-09T14:50:30.253Z,33.00
2017-08-09T14:52:57.781Z,32.70
2017-08-09T14:55:25.397Z,33.00
2017-08-09T14:57:53.108Z,34.00
2017-08-09T15:00:21.400Z,35.80
2017-08-09T15:02:49.710Z,35.30
2017-08-09T15:05:17.270Z,35.30
2017-08-09T15:07:44.886Z,35.90
2017-08-09T15:10:13.210Z,36.20
2017-08-09T15:12:40.770Z,36.20
2017-08-09T15:15:08.298Z,35.70
2017-08-09T15:17:35.899Z,37.00
2017-08-09T15:20:03.448Z,38.00
2017-08-09T15:22:30.974Z,38.50
2017-08-09T15:24:58.666Z,39.80
2017-08-09T15:27:26.218Z,42.00
2017-08-09T15:29:53.797Z,44.00
2017-08-09T15:32:21.321Z,45.10
2017-08-09T15:34:48.873Z,46.20
2017-08-09T15:37:17.179Z,47.20
2017-08-09T15:39:44.697Z,47.10
2017-08-09T15:42:13.021Z,48.10
2017-08-09T15:44:40.953Z,48.10
2017-08-09T15:47:09.237Z,49.30
2017-08-09T15:49:36.790Z,49.30
2017-08-09T15:52:04.378Z,49.90
2017-08-09T15:54:31.929Z,50.10
2017-08-09T15:56:59.468Z,50.50
2017-08-09T15:59:27.000Z,51.50
2017-08-09T16:01:54.515Z,52.20
2017-08-09T16:04:22.055Z,52.50
2017-08-09T16:06:49.577Z,51.90
2017-08-09T16:09:17.134Z,52.00
2017-08-09T16:11:44.674Z,51.90
2017-08-09T16:14:12.315Z,52.50
2017-08-09T16:16:39.899Z,52.10
2017-08-09T16:19:07.444Z,52.30
2017-08-09T16:21:34.966Z,51.20
2017-08-09T16:24:02.546Z,51.40
2017-08-09T16:26:30.120Z,52.30
2017-08-09T16:28:57.638Z,52.50
2017-08-09T16:31:25.157Z,52.60
2017-08-09T16:33:52.697Z,53.30
2017-08-09T16:36:20.222Z,53.90
2017-08-09T16:38:47.789Z,55.40
2017-08-09T16:41:15.333Z,55.60
2017-08-09T16:43:43.631Z,55.80
2017-08-09T16:46:11.158Z,55.70
2017-08-09T16:48:39.457Z,56.50
2017-08-09T16:51:06.985Z,56.90
2017-08-09T16:53:35.289Z,57.40
2017-08-09T16:56:02.821Z,57.20
2017-08-09T16:58:30.445Z,58.00
2017-08-09T17:00:58.000Z,57.50
2017-08-09T17:03:25.563Z,58.00
2017-08-09T17:05:53.194Z,58.00
2017-08-09T17:08:20.774Z,58.40
2017-08-09T17:10:48.435Z,58.90
2017-08-09T17:13:15.959Z,59.30
2017-08-09T17:15:43.654Z,59.10
2017-08-09T17:18:11.252Z,59.90
2017-08-09T17:20:38.771Z,60.60
2017-08-09T17:23:06.486Z,60.00
2017-08-09T17:25:34.018Z,60.20
2017-08-09T17:28:01.554Z,60.30
2017-08-09T17:30:29.116Z,60.80
2017-08-09T17:32:56.775Z,61.00
2017-08-09T17:35:24.434Z,61.10
2017-08-09T17:37:51.957Z,60.80
2017-08-09T17:40:19.494Z,61.30
2017-08-09T17:42:47.027Z,62.10
2017-08-09T17:45:14.553Z,62.90
2017-08-09T17:47:42.101Z,63.40
2017-08-09T17:50:09.638Z,63.90
2017-08-09T17:52:37.962Z,65.20
2017-08-09T17:55:05.527Z,65.20
2017-08-09T17:57:33.094Z,66.30
2017-08-09T18:00:00.621Z,66.70
2017-08-09T18:02:28.211Z,67.80
2017-08-09T18:04:55.762Z,68.00
2017-08-09T18:07:23.322Z,69.30
2017-08-09T18:09:50.868Z,69.60
2017-08-09T18:12:19.274Z,70.40
2017-08-09T18:14:46.816Z,70.60
2017-08-09T18:17:14.378Z,71.50
2017-08-09T18:19:41.895Z,72.30
2017-08-09T18:22:10.187Z,74.40
2017-08-09T18:24:37.738Z,74.30
2017-08-09T18:27:05.266Z,75.70
2017-08-09T18:29:32.790Z,75.80
2017-08-09T18:32:00.334Z,76.40
2017-08-09T18:34:27.914Z,77.10
2017-08-09T18:36:55.698Z,77.90
2017-08-09T18:39:23.241Z,78.40
2017-08-09T18:41:50.821Z,79.60
2017-08-09T18:44:18.350Z,79.30
2017-08-09T18:46:45.891Z,80.70
2017-08-09T18:49:13.469Z,80.50
2017-08-09T18:51:40.993Z,81.50
2017-08-09T18:54:09.345Z,84.70
2017-08-09T18:56:37.175Z,84.70
2017-08-09T18:59:04.697Z,86.60
2017-08-09T19:01:33.093Z,89.20
2017-08-09T19:04:00.671Z,89.80
2017-08-09T19:06:28.289Z,90.70
2017-08-09T19:08:56.602Z,93.20
2017-08-09T19:11:24.164Z,93.20
2017-08-09T19:13:51.726Z,94.80
2017-08-09T19:16:19.287Z,96.30
2017-08-09T19:18:46.818Z,96.80
2017-08-09T19:21:14.338Z,98.80
2017-08-09T19:23:41.883Z,99.60
2017-08-09T19:26:09.430Z,99.90
2017-08-09T19:28:36.988Z,99.90
2017-08-09T19:31:04.644Z,99.90
2017-08-09T19:33:32.168Z,99.90
2017-08-09T19:36:00.485Z,99.90
2017-08-09T19:38:28.041Z,99.90
2017-08-09T19:40:55.582Z,99.90
2017-08-09T19:43:23.109Z,99.90
2017-08-09T19:45:51.463Z,99.90
2017-08-09T19:48:19.105Z,99.90
2017-08-09T19:50:46.621Z,99.90
2017-08-09T19:53:14.939Z,99.90
2017-08-09T19:55:42.491Z,99.90
2017-08-09T19:58:10.013Z,99.90
2017-08-09T20:00:38.319Z,99.90
2017-08-09T20:03:05.843Z,99.90
2017-08-09T20:05:34.143Z,99.90
2017-08-09T20:08:01.903Z,99.90
2017-08-09T20:10:29.429Z,99.90
2017-08-09T20:12:56.950Z,99.90
2017-08-09T20:15:24.502Z,99.90
2017-08-09T20:17:52.031Z,99.90
2017-08-09T20:20:19.555Z,99.90
2017-08-09T20:22:47.091Z,99.90
2017-08-09T20:25:14.628Z,99.90
2017-08-09T20:27:42.140Z,99.90
2017-08-09T20:30:09.678Z,99.90
2017-08-09T20:32:37.198Z,99.90
2017-08-09T20:35:04.718Z,99.90
2017-08-09T20:37:32.266Z,99.90
2017-08-09T20:39:59.816Z,99.90
2017-08-09T20:42:27.346Z,99.90
2017-08-09T20:44:54.890Z,99.90
2017-08-09T20:47:22.470Z,99.90
2017-08-09T20:49:49.998Z,99.90
2017-08-09T20:52:17.546Z,99.90
2017-08-09T20:54:45.833Z,99.90
2017-08-09T20:57:13.367Z,99.90
2017-08-09T20:59:41.081Z,99.90
2017-08-09T21:02:08.667Z,99.90
2017-08-09T21:04:36.194Z,99.90
2017-08-09T21:07:03.841Z,99.90
2017-08-09T21:09:31.367Z,99.90
2017-08-09T21:11:59.225Z,99.90
2017-08-09T21:14:26.909Z,99.90
2017-08-09T21:16:55.275Z,99.90
2017-08-09T21:19:23.651Z,99.90
2017-08-09T21:21:51.985Z,99.90
2017-08-09T21:24:19.505Z,99.90
2017-08-09T21:26:47.793Z,99.90
2017-08-09T21:29:15.378Z,99.90
2017-08-09T21:31:42.947Z,99.90
2017-08-09T21:34:10.464Z,99.90
2017-08-09T21:36:38.767Z,99.90
2017-08-09T21:39:06.330Z,99.90
2017-08-09T21:41:33.902Z,99.90
2017-08-09T21:44:01.454Z,99.90
2017-08-09T21:46:28.990Z,99.90
2017-08-09T21:48:56.511Z,99.90
2017-08-09T21:51:24.134Z,99.90
2017-08-09T21:53:51.697Z,99.90
2017-08-09T21:56:19.214Z,99.90
2017-08-09T21:58:47.523Z,99.90
2017-08-09T22:01:15.190Z,99.90
2017-08-09T22:03:42.709Z,99.90
2017-08-09T22:06:11.025Z,99.90
2017-08-09T22:08:38.586Z,99.90
2017-08-09T22:11:06.113Z,99.90
2017-08-09T22:13:34.409Z,99.90
2017-08-09T22:16:01.933Z,99.90
2017-08-09T22:18:30.220Z,99.90
2017-08-09T22:20:58.522Z,99.90
2017-08-09T22:23:26.049Z,99.90
2017-08-09T22:25:54.347Z,99.90
2017-08-09T22:28:21.885Z,99.90
2017-08-09T22:30:49.401Z,99.90
2017-08-09T22:33:16.951Z,99.90
2017-08-09T22:35:44.506Z,99.90
2017-08-09T22:38:12.027Z,99.90
2017-08-09T22:40:40.308Z,99.90
2017-08-09T22:43:08.720Z,99.90
2017-08-09T22:45:36.293Z,99.90
2017-08-09T22:48:03.843Z,99.90
2017-08-09T22:50:31.400Z,99.90
2017-08-09T22:52:58.998Z,99.90
2017-08-09T22:55:26.530Z,99.90
2017-08-09T22:57:54.078Z,99.90
2017-08-09T23:00:21.734Z,99.90
2017-08-09T23:02:49.257Z,99.90
2017-08-09T23:05:17.558Z,99.90
2017-08-09T23:07:45.137Z,99.90
2017-08-09T23:10:12.798Z,99.90
2017-08-09T23:12:40.459Z,99.90
2017-08-09T23:15:07.982Z,99.90
2017-08-09T23:17:36.273Z,99.90
2017-08-09T23:20:03.857Z,99.90
2017-08-09T23:22:31.415Z,99.90
2017-08-09T23:24:58.934Z,99.90
2017-08-09T23:27:27.869Z,99.90
2017-08-09T23:29:55.411Z,99.90
2017-08-09T23:32:23.468Z,99.90
2017-08-09T23:34:51.013Z,99.90
2017-08-09T23:37:19.300Z,99.90
2017-08-09T23:39:46.995Z,99.90
2017-08-09T23:42:14.554Z,99.90
2017-08-09T23:57:42.182Z,99.90
